createdAt,value
2023-04-27T00:01:55.883Z,20.33
2023-04-27T00:04:23.820Z,19.23
2023-04-27T00:06:52.325Z,18.58
2023-04-27T00:09:20.188Z,18.15
2023-04-27T00:11:48.125Z,17.02
2023-04-27T00:14:15.727Z,19.67
2023-04-27T00:16:43.723Z,16.70
2023-04-27T00:19:11.457Z,20.38
2023-04-27T00:21:39.619Z,17.73
2023-04-27T00:24:07.684Z,20.05
2023-04-27T00:26:35.539Z,21.58
2023-04-27T00:29:03.690Z,19.60
2023-04-27T00:31:31.653Z,20.73
2023-04-27T00:33:59.283Z,19.05
2023-04-27T00:36:27.675Z,19.98
2023-04-27T00:38:55.342Z,15.05
2023-04-27T00:41:23.833Z,21.02
2023-04-27T00:43:51.565Z,20.05
2023-04-27T00:46:19.867Z,18.25
2023-04-27T00:48:47.847Z,23.05
2023-04-27T00:51:15.873Z,22.23
2023-04-27T00:53:44.380Z,19.20
2023-04-27T00:56:13.737Z,25.88
2023-04-27T00:58:41.396Z,23.67
2023-04-27T01:01:11.056Z,22.95
2023-04-27T01:03:38.836Z,26.25
2023-04-27T01:06:07.652Z,21.27
2023-04-27T01:08:36.671Z,26.02
2023-04-27T01:11:04.551Z,26.58
2023-04-27T01:13:32.453Z,23.10
2023-04-27T01:16:00.381Z,20.58
2023-04-27T01:18:28.029Z,23.98
2023-04-27T01:20:58.189Z,23.52
2023-04-27T01:23:26.461Z,23.95
2023-04-27T01:25:54.443Z,19.40
2023-04-27T01:28:22.110Z,22.45
2023-04-27T01:30:50.140Z,21.77
2023-04-27T01:33:18.461Z,24.48
2023-04-27T01:35:49.379Z,21.30
2023-04-27T01:38:17.835Z,19.73
2023-04-27T01:40:45.792Z,20.63
2023-04-27T01:43:14.200Z,16.38
2023-04-27T01:45:42.426Z,24.30
2023-04-27T01:48:10.233Z,26.17
2023-04-27T01:50:38.268Z,23.85
2023-04-27T01:53:07.553Z,25.65
2023-04-27T01:55:35.662Z,23.60
2023-04-27T01:58:03.608Z,22.60
2023-04-27T02:00:32.530Z,20.42
2023-04-27T02:03:01.362Z,21.05
2023-04-27T02:05:29.679Z,19.73
2023-04-27T02:07:57.398Z,19.33
2023-04-27T02:10:25.389Z,22.83
2023-04-27T02:12:57.221Z,28.27
2023-04-27T02:15:25.313Z,18.00
2023-04-27T02:17:52.941Z,22.88
2023-04-27T02:20:20.995Z,21.50
2023-04-27T02:22:48.653Z,22.88
2023-04-27T02:25:16.674Z,22.85
2023-04-27T02:27:44.308Z,26.25
2023-04-27T02:30:13.170Z,21.48
2023-04-27T02:32:41.725Z,18.75
2023-04-27T02:35:10.117Z,26.80
2023-04-27T02:37:37.841Z,21.15
2023-04-27T02:40:09.404Z,24.98
2023-04-27T02:42:39.027Z,29.63
2023-04-27T02:45:08.365Z,21.98
2023-04-27T02:47:37.606Z,23.45
2023-04-27T02:50:06.030Z,22.38
2023-04-27T02:52:35.716Z,19.25
2023-04-27T02:55:03.798Z,27.40
2023-04-27T02:57:31.809Z,25.08
2023-04-27T02:59:59.802Z,26.38
2023-04-27T03:02:27.478Z,20.02
2023-04-27T03:04:56.154Z,23.65
2023-04-27T03:07:24.984Z,24.88
2023-04-27T03:09:52.962Z,21.02
2023-04-27T03:12:20.660Z,22.70
2023-04-27T03:14:48.662Z,24.83
2023-04-27T03:17:16.332Z,23.42
2023-04-27T03:19:44.219Z,22.75
2023-04-27T03:22:12.249Z,22.02
2023-04-27T03:24:40.200Z,28.63
2023-04-27T03:27:07.819Z,24.45
2023-04-27T03:29:35.955Z,24.40
2023-04-27T03:32:06.503Z,26.98
2023-04-27T03:34:34.536Z,28.20
2023-04-27T03:37:03.010Z,27.30
2023-04-27T03:39:31.128Z,22.10
2023-04-27T03:41:59.220Z,21.83
2023-04-27T03:44:27.161Z,21.65
2023-04-27T03:46:54.970Z,25.42
2023-04-27T03:49:23.326Z,31.42
2023-04-27T03:51:51.761Z,23.40
2023-04-27T03:54:19.670Z,22.35
2023-04-27T03:56:47.842Z,24.65
2023-04-27T03:59:16.729Z,24.38
2023-04-27T04:01:50.027Z,25.45
2023-04-27T04:04:18.508Z,42.63
2023-04-27T04:06:46.330Z,35.13
2023-04-27T04:09:15.359Z,33.65
2023-04-27T04:11:44.330Z,36.00
2023-04-27T04:14:16.356Z,29.92
2023-04-27T04:16:44.012Z,30.33
2023-04-27T04:19:12.155Z,30.33
2023-04-27T04:21:40.078Z,32.75
2023-04-27T04:24:10.364Z,35.58
2023-04-27T04:26:39.455Z,30.48
2023-04-27T04:29:09.528Z,25.42
2023-04-27T04:31:38.883Z,30.13
2023-04-27T04:34:06.974Z,34.35
2023-04-27T04:36:34.646Z,29.30
2023-04-27T04:39:04.007Z,25.88
2023-04-27T04:41:33.413Z,27.95
2023-04-27T04:44:01.770Z,23.77
2023-04-27T04:46:30.671Z,27.20
2023-04-27T04:48:58.628Z,32.05
2023-04-27T04:51:26.365Z,24.65
2023-04-27T04:53:54.314Z,31.75
2023-04-27T04:56:24.290Z,29.00
2023-04-27T04:58:54.711Z,23.23
2023-04-27T05:01:22.417Z,23.80
2023-04-27T05:03:50.447Z,24.33
2023-04-27T05:06:18.170Z,24.33
2023-04-27T05:08:46.110Z,23.95
2023-04-27T05:11:13.900Z,23.80
2023-04-27T05:13:41.892Z,20.45
2023-04-27T05:16:09.765Z,21.33
2023-04-27T05:18:37.743Z,18.42
2023-04-27T05:21:05.504Z,23.30
2023-04-27T05:23:33.354Z,20.85
2023-04-27T05:26:01.043Z,20.73
2023-04-27T05:28:29.039Z,19.20
2023-04-27T05:30:56.635Z,23.02
2023-04-27T05:33:24.579Z,22.17
2023-04-27T05:35:52.175Z,23.33
2023-04-27T05:38:20.168Z,24.45
2023-04-27T05:40:48.180Z,26.50
2023-04-27T05:43:16.087Z,20.15
2023-04-27T05:45:43.902Z,20.20
2023-04-27T05:48:12.212Z,22.60
2023-04-27T05:50:39.988Z,19.48
2023-04-27T05:53:08.153Z,19.98
2023-04-27T05:55:35.860Z,18.80
2023-04-27T05:58:08.426Z,16.48
2023-04-27T06:00:37.037Z,22.88
2023-04-27T06:03:05.204Z,18.38
2023-04-27T06:05:34.385Z,19.27
2023-04-27T06:08:02.796Z,18.55
2023-04-27T06:10:30.467Z,17.67
2023-04-27T06:12:58.872Z,24.33
2023-04-27T06:15:26.533Z,20.13
2023-04-27T06:17:54.640Z,22.15
2023-04-27T06:20:22.439Z,18.30
2023-04-27T06:22:50.669Z,15.43
2023-04-27T06:25:18.282Z,24.75
2023-04-27T06:27:46.521Z,21.08
2023-04-27T06:30:14.354Z,18.00
2023-04-27T06:32:42.255Z,17.73
2023-04-27T06:35:10.626Z,17.67
2023-04-27T06:37:39.151Z,15.30
2023-04-27T06:40:08.185Z,17.83
2023-04-27T06:42:36.330Z,17.80
2023-04-27T06:45:05.651Z,14.57
2023-04-27T06:47:33.850Z,19.58
2023-04-27T06:50:01.589Z,16.25
2023-04-27T06:52:31.979Z,17.73
2023-04-27T06:54:59.705Z,17.10
2023-04-27T06:57:28.039Z,15.15
2023-04-27T06:59:55.718Z,20.25
2023-04-27T07:02:25.502Z,16.60
2023-04-27T07:04:53.681Z,13.55
2023-04-27T07:07:21.686Z,14.90
2023-04-27T07:09:49.337Z,13.98
2023-04-27T07:12:17.281Z,18.35
2023-04-27T07:14:44.945Z,14.48
2023-04-27T07:17:12.836Z,13.65
2023-04-27T07:19:40.543Z,12.05
2023-04-27T07:22:08.562Z,13.80
2023-04-27T07:24:36.321Z,12.90
2023-04-27T07:27:04.238Z,12.02
2023-04-27T07:29:32.349Z,11.80
2023-04-27T07:32:00.801Z,13.48
2023-04-27T07:34:35.051Z,13.27
2023-04-27T07:37:10.444Z,9.60
2023-04-27T07:39:38.193Z,17.80
2023-04-27T07:42:06.291Z,7.97
2023-04-27T07:44:33.996Z,10.70
2023-04-27T07:47:04.264Z,7.63
2023-04-27T07:49:32.444Z,9.07
2023-04-27T07:52:00.340Z,9.43
2023-04-27T07:54:28.150Z,9.95
2023-04-27T07:56:56.288Z,10.38
2023-04-27T07:59:24.002Z,9.13
2023-04-27T08:01:51.894Z,12.18
2023-04-27T08:04:19.884Z,7.85
2023-04-27T08:06:48.817Z,7.93
2023-04-27T08:09:16.605Z,8.73
2023-04-27T08:11:44.627Z,8.90
2023-04-27T08:14:13.788Z,12.30
2023-04-27T08:16:43.218Z,9.80
2023-04-27T08:19:12.140Z,9.15
2023-04-27T08:21:40.184Z,10.05
2023-04-27T08:24:07.912Z,12.02
2023-04-27T08:26:36.379Z,9.55
2023-04-27T08:29:15.742Z,9.23
2023-04-27T08:31:52.950Z,11.82
2023-04-27T08:34:22.109Z,7.28
2023-04-27T08:36:50.159Z,10.48
2023-04-27T08:39:18.384Z,8.80
2023-04-27T08:41:46.914Z,12.00
2023-04-27T08:44:14.855Z,12.63
2023-04-27T08:46:43.004Z,9.18
2023-04-27T08:49:10.868Z,8.43
2023-04-27T08:51:38.834Z,9.10
2023-04-27T08:54:06.467Z,8.05
2023-04-27T08:56:34.473Z,16.02
2023-04-27T08:59:04.612Z,10.35
2023-04-27T09:01:34.759Z,12.10
2023-04-27T09:04:02.932Z,13.07
2023-04-27T09:06:33.002Z,10.43
2023-04-27T09:09:01.699Z,12.13
2023-04-27T09:11:32.070Z,9.30
2023-04-27T09:14:02.031Z,10.95
2023-04-27T09:16:31.376Z,11.18
2023-04-27T09:19:00.330Z,12.90
2023-04-27T09:21:31.384Z,14.10
2023-04-27T09:24:09.644Z,10.60
2023-04-27T09:26:38.341Z,12.15
2023-04-27T09:29:06.059Z,13.85
2023-04-27T09:31:37.446Z,13.77
2023-04-27T09:34:05.249Z,13.85
2023-04-27T09:36:33.580Z,10.23
2023-04-27T09:39:06.854Z,15.25
2023-04-27T09:41:35.568Z,12.50
2023-04-27T09:44:03.701Z,12.43
2023-04-27T09:46:34.512Z,9.73
2023-04-27T09:49:06.025Z,12.48
2023-04-27T09:51:34.588Z,10.77
2023-04-27T09:54:04.596Z,13.75
2023-04-27T09:56:51.141Z,11.40
2023-04-27T09:59:37.417Z,17.45
2023-04-27T10:02:23.024Z,13.00
2023-04-27T10:05:33.038Z,13.90
2023-04-27T10:08:03.276Z,12.40
2023-04-27T10:10:31.296Z,9.43
2023-04-27T10:13:02.223Z,10.85
2023-04-27T10:15:30.613Z,10.05
2023-04-27T10:18:05.722Z,7.65
2023-04-27T10:20:35.924Z,5.57
2023-04-27T10:23:04.181Z,8.57
2023-04-27T10:25:42.097Z,11.02
2023-04-27T10:28:21.309Z,10.05
2023-04-27T10:30:49.629Z,9.13
2023-04-27T10:33:19.968Z,11.15
2023-04-27T10:35:56.805Z,10.05
2023-04-27T10:38:31.535Z,8.73
2023-04-27T10:41:05.458Z,8.73
2023-04-27T10:43:35.902Z,6.93
2023-04-27T10:46:14.606Z,11.93
2023-04-27T10:48:44.008Z,7.90
2023-04-27T10:51:17.486Z,7.93
2023-04-27T10:53:45.902Z,5.70
2023-04-27T10:56:14.185Z,9.20
2023-04-27T10:58:48.808Z,8.15
2023-04-27T11:01:27.143Z,8.45
2023-04-27T11:04:03.677Z,8.15
2023-04-27T11:06:34.990Z,7.03
2023-04-27T11:09:02.904Z,9.55
2023-04-27T11:11:30.667Z,8.32
2023-04-27T11:13:58.936Z,9.32
2023-04-27T11:16:26.850Z,11.55
2023-04-27T11:18:54.944Z,7.03
2023-04-27T11:21:23.558Z,9.00
2023-04-27T11:23:51.550Z,8.73
2023-04-27T11:26:25.887Z,6.32
2023-04-27T11:29:06.626Z,7.82
2023-04-27T11:31:49.426Z,7.55
2023-04-27T11:34:19.764Z,6.45
2023-04-27T11:39:41.682Z,8.02
2023-04-27T11:42:25.101Z,11.13
2023-04-27T11:45:09.134Z,5.43
2023-04-27T11:47:36.932Z,12.70
2023-04-27T11:50:08.127Z,8.82
2023-04-27T11:52:38.103Z,8.05
2023-04-27T11:55:07.132Z,6.47
2023-04-27T11:57:36.546Z,7.18
2023-04-27T12:00:14.164Z,5.75
2023-04-27T12:02:43.374Z,6.90
2023-04-27T12:05:13.174Z,5.68
2023-04-27T12:07:42.271Z,6.65
2023-04-27T12:10:10.584Z,8.88
2023-04-27T12:12:38.791Z,12.68
2023-04-27T12:15:08.550Z,9.45
2023-04-27T12:17:38.852Z,4.15
2023-04-27T12:20:07.528Z,6.00
2023-04-27T12:22:35.353Z,4.53
2023-04-27T12:25:03.387Z,6.82
2023-04-27T12:27:31.246Z,4.65
2023-04-27T12:29:59.637Z,3.67
2023-04-27T12:32:28.039Z,5.20
2023-04-27T12:34:56.265Z,4.55
2023-04-27T12:37:26.218Z,7.38
2023-04-27T12:39:54.992Z,7.20
2023-04-27T12:42:24.300Z,6.20
2023-04-27T12:44:53.126Z,4.70
2023-04-27T12:47:46.020Z,7.00
2023-04-27T12:50:10.243Z,6.07
2023-04-27T12:52:38.263Z,5.32
2023-04-27T12:55:07.103Z,5.65
2023-04-27T12:57:37.591Z,7.30
2023-04-27T13:00:10.059Z,5.15
2023-04-27T13:02:38.253Z,8.77
2023-04-27T13:05:07.919Z,7.18
2023-04-27T13:07:36.011Z,4.30
2023-04-27T13:10:03.968Z,4.28
2023-04-27T13:12:32.738Z,5.28
2023-04-27T13:15:00.515Z,7.03
2023-04-27T13:17:28.433Z,6.78
2023-04-27T13:19:56.219Z,8.43
2023-04-27T13:22:24.128Z,5.97
2023-04-27T13:24:51.775Z,6.00
2023-04-27T13:27:22.446Z,9.35
2023-04-27T13:29:51.225Z,6.15
2023-04-27T13:32:19.126Z,12.93
2023-04-27T13:34:46.972Z,6.15
2023-04-27T13:37:14.957Z,5.47
2023-04-27T13:39:42.614Z,5.57
2023-04-27T13:42:10.553Z,8.40
2023-04-27T13:44:38.299Z,7.38
2023-04-27T13:47:06.994Z,7.75
2023-04-27T13:49:34.798Z,9.55
2023-04-27T13:52:02.958Z,7.45
2023-04-27T13:54:30.834Z,7.40
2023-04-27T13:56:58.773Z,8.70
2023-04-27T13:59:26.557Z,9.32
2023-04-27T14:01:55.311Z,9.70
2023-04-27T14:04:23.016Z,7.70
2023-04-27T14:06:50.985Z,5.93
2023-04-27T14:09:18.852Z,8.35
2023-04-27T14:11:56.571Z,6.95
2023-04-27T14:14:25.442Z,5.10
2023-04-27T14:16:54.209Z,6.20
2023-04-27T14:19:22.247Z,8.23
2023-04-27T14:21:50.363Z,6.80
2023-04-27T14:24:17.997Z,6.47
2023-04-27T14:26:47.636Z,5.70
2023-04-27T14:29:15.928Z,12.85
2023-04-27T14:31:45.015Z,6.53
2023-04-27T14:34:14.731Z,6.47
2023-04-27T14:36:42.836Z,7.32
2023-04-27T14:39:10.820Z,9.27
2023-04-27T14:41:38.946Z,5.60
2023-04-27T14:44:08.201Z,4.88
2023-04-27T14:46:36.902Z,8.13
2023-04-27T14:49:04.573Z,7.38
2023-04-27T14:51:33.300Z,5.35
2023-04-27T14:54:02.331Z,6.13
2023-04-27T14:56:30.524Z,6.63
2023-04-27T14:58:58.185Z,8.13
2023-04-27T15:01:26.370Z,5.00
2023-04-27T15:03:56.618Z,5.30
2023-04-27T15:06:28.219Z,7.82
2023-04-27T15:08:56.244Z,6.97
2023-04-27T15:11:24.427Z,7.97
2023-04-27T15:13:52.074Z,7.07
2023-04-27T15:16:20.496Z,5.70
2023-04-27T15:18:48.319Z,7.85
2023-04-27T15:21:16.298Z,10.18
2023-04-27T15:23:43.938Z,4.65
2023-04-27T15:26:11.886Z,9.50
2023-04-27T15:28:39.509Z,4.55
2023-04-27T15:31:08.806Z,5.32
2023-04-27T15:33:36.531Z,5.75
2023-04-27T15:36:04.654Z,5.63
2023-04-27T15:38:32.261Z,5.18
2023-04-27T15:41:00.288Z,6.70
2023-04-27T15:43:28.052Z,6.53
2023-04-27T15:45:56.182Z,9.63
2023-04-27T15:48:23.847Z,7.90
2023-04-27T15:50:51.766Z,4.93
2023-04-27T15:53:19.418Z,6.35
2023-04-27T15:55:47.533Z,7.63
2023-04-27T15:58:16.413Z,6.82
2023-04-27T16:00:44.408Z,9.57
2023-04-27T16:03:14.278Z,11.98
2023-04-27T16:05:42.520Z,12.20
2023-04-27T16:08:10.148Z,16.40
2023-04-27T16:10:38.234Z,35.22
2023-04-27T16:13:05.995Z,39.42
2023-04-27T16:15:33.979Z,14.80
2023-04-27T16:18:02.303Z,15.65
2023-04-27T16:20:32.289Z,10.93
2023-04-27T16:23:00.717Z,12.35
2023-04-27T16:25:28.728Z,17.13
2023-04-27T16:27:58.617Z,31.95
2023-04-27T16:30:26.681Z,16.30
2023-04-27T16:32:54.528Z,24.02
2023-04-27T16:35:22.587Z,18.23
2023-04-27T16:37:50.710Z,20.83
2023-04-27T16:40:18.684Z,15.13
2023-04-27T16:42:46.784Z,11.02
2023-04-27T16:45:14.774Z,9.40
2023-04-27T16:47:42.655Z,11.95
2023-04-27T16:50:10.999Z,19.58
2023-04-27T16:52:38.631Z,15.32
2023-04-27T16:55:07.326Z,15.88
2023-04-27T16:57:35.366Z,10.32
2023-04-27T17:00:06.135Z,10.43
2023-04-27T17:02:34.070Z,17.10
2023-04-27T17:05:02.861Z,13.93
2023-04-27T17:07:32.814Z,15.02
2023-04-27T17:10:00.978Z,12.38
2023-04-27T17:12:28.684Z,9.13
2023-04-27T17:14:56.817Z,17.17
2023-04-27T17:17:24.516Z,13.30
2023-04-27T17:19:52.467Z,11.07
2023-04-27T17:22:20.220Z,9.25
2023-04-27T17:24:48.231Z,12.10
2023-04-27T17:27:16.149Z,13.30
2023-04-27T17:29:44.170Z,16.65
2023-04-27T17:32:11.970Z,13.35
2023-04-27T17:34:41.706Z,17.33
2023-04-27T17:37:10.772Z,16.90
2023-04-27T17:39:38.858Z,9.50
2023-04-27T17:42:11.895Z,13.57
2023-04-27T17:44:42.204Z,21.73
2023-04-27T17:47:10.136Z,11.25
2023-04-27T17:49:38.081Z,15.27
2023-04-27T17:52:06.193Z,11.48
2023-04-27T17:54:34.121Z,7.95
2023-04-27T17:57:02.096Z,9.13
2023-04-27T17:59:30.169Z,9.10
2023-04-27T18:01:58.745Z,15.90
2023-04-27T18:04:26.891Z,11.32
2023-04-27T18:06:54.708Z,12.70
2023-04-27T18:09:23.592Z,12.15
2023-04-27T18:11:51.321Z,8.60
2023-04-27T18:14:19.304Z,8.90
2023-04-27T18:16:46.991Z,11.93
2023-04-27T18:19:15.160Z,11.00
2023-04-27T18:21:43.087Z,8.05
2023-04-27T18:24:11.107Z,13.02
2023-04-27T18:26:38.804Z,18.83
2023-04-27T18:29:06.834Z,15.13
2023-04-27T18:31:35.076Z,14.45
2023-04-27T18:34:03.066Z,11.77
2023-04-27T18:36:31.495Z,10.70
2023-04-27T18:38:59.734Z,13.20
2023-04-27T18:41:27.515Z,13.63
2023-04-27T18:44:02.274Z,15.80
2023-04-27T18:46:30.073Z,16.25
2023-04-27T18:48:58.042Z,18.00
2023-04-27T18:51:26.390Z,15.48
2023-04-27T18:53:54.655Z,12.93
2023-04-27T18:56:22.791Z,15.15
2023-04-27T18:58:51.131Z,12.88
2023-04-27T19:01:28.180Z,25.42
2023-04-27T19:03:56.803Z,17.50
2023-04-27T19:06:24.970Z,13.05
2023-04-27T19:08:53.076Z,16.48
2023-04-27T19:11:22.448Z,25.65
2023-04-27T19:13:51.152Z,19.20
2023-04-27T19:16:18.877Z,20.83
2023-04-27T19:18:47.006Z,16.02
2023-04-27T19:21:14.768Z,15.23
2023-04-27T19:23:44.758Z,14.48
2023-04-27T19:26:13.948Z,11.55
2023-04-27T19:28:42.511Z,20.58
2023-04-27T19:31:10.444Z,13.85
2023-04-27T19:33:46.576Z,18.70
2023-04-27T19:36:14.928Z,14.80
2023-04-27T19:38:42.843Z,19.75
2023-04-27T19:41:10.710Z,12.60
2023-04-27T19:43:38.632Z,22.48
2023-04-27T19:46:06.347Z,22.95
2023-04-27T19:48:34.482Z,20.50
2023-04-27T19:51:02.113Z,25.05
2023-04-27T19:53:30.260Z,16.35
2023-04-27T19:56:00.104Z,20.30
2023-04-27T19:58:28.789Z,19.45
2023-04-27T20:00:56.487Z,17.92
2023-04-27T20:03:24.601Z,29.00
2023-04-27T20:05:52.797Z,32.80
2023-04-27T20:08:21.008Z,49.20
2023-04-27T20:10:48.679Z,43.33
2023-04-27T20:13:16.575Z,37.25
2023-04-27T20:15:44.512Z,47.53
2023-04-27T20:18:12.974Z,67.97
2023-04-27T20:20:42.024Z,86.25
2023-04-27T20:23:10.046Z,78.47
2023-04-27T20:25:38.082Z,105.43
2023-04-27T20:28:06.003Z,91.53
2023-04-27T20:30:33.653Z,149.27
2023-04-27T20:33:03.731Z,163.10
2023-04-27T20:35:31.482Z,135.88
2023-04-27T20:38:00.490Z,63.15
2023-04-27T20:40:28.258Z,64.47
2023-04-27T20:42:56.445Z,41.92
2023-04-27T20:45:25.471Z,59.65
2023-04-27T20:47:53.517Z,100.95
2023-04-27T20:50:21.336Z,106.35
2023-04-27T20:52:49.323Z,164.75
2023-04-27T20:55:17.079Z,143.00
2023-04-27T20:57:44.978Z,140.68
2023-04-27T21:00:15.347Z,152.07
2023-04-27T21:02:43.387Z,136.45
2023-04-27T21:05:11.598Z,92.30
2023-04-27T21:07:39.596Z,71.53
2023-04-27T21:10:08.085Z,89.10
2023-04-27T21:12:36.066Z,142.63
2023-04-27T21:15:03.942Z,169.05
2023-04-27T21:17:31.963Z,186.02
2023-04-27T21:19:59.599Z,177.73
2023-04-27T21:22:27.561Z,218.82
2023-04-27T21:24:55.238Z,196.73
2023-04-27T21:27:23.296Z,187.73
2023-04-27T21:29:50.977Z,165.68
2023-04-27T21:32:18.914Z,117.03
2023-04-27T21:34:46.650Z,132.70
2023-04-27T21:37:14.625Z,135.43
2023-04-27T21:39:42.347Z,109.45
2023-04-27T21:42:10.450Z,117.90
2023-04-27T21:44:38.399Z,95.22
2023-04-27T21:47:06.897Z,87.80
2023-04-27T21:49:34.670Z,106.88
2023-04-27T21:52:02.573Z,94.43
2023-04-27T21:54:30.949Z,98.47
2023-04-27T21:56:58.819Z,105.40
2023-04-27T21:59:26.497Z,107.68
2023-04-27T22:01:56.289Z,83.30
2023-04-27T22:04:25.108Z,60.38
2023-04-27T22:06:53.365Z,71.07
2023-04-27T22:09:21.231Z,80.53
2023-04-27T22:11:49.138Z,73.68
2023-04-27T22:14:17.324Z,71.38
2023-04-27T22:16:45.426Z,82.30
2023-04-27T22:19:13.134Z,86.85
2023-04-27T22:21:40.997Z,98.30
2023-04-27T22:24:08.978Z,97.43
2023-04-27T22:26:36.922Z,85.43
2023-04-27T22:29:04.569Z,76.47
2023-04-27T22:31:32.700Z,74.15
2023-04-27T22:34:01.903Z,78.10
2023-04-27T22:36:29.869Z,72.82
2023-04-27T22:38:57.599Z,67.32
2023-04-27T22:41:25.528Z,67.97
2023-04-27T22:43:53.612Z,65.57
2023-04-27T22:46:23.250Z,61.80
2023-04-27T22:48:52.997Z,62.53
2023-04-27T22:51:21.844Z,57.85
2023-04-27T22:53:49.707Z,60.97
2023-04-27T22:56:17.697Z,54.42
2023-04-27T22:58:46.642Z,63.70
2023-04-27T23:01:14.634Z,68.63
2023-04-27T23:03:42.465Z,68.30
2023-04-27T23:06:16.520Z,55.45
2023-04-27T23:08:47.445Z,57.53
2023-04-27T23:11:15.564Z,48.10
2023-04-27T23:13:44.043Z,48.95
2023-04-27T23:16:12.108Z,46.80
2023-04-27T23:18:39.787Z,41.65
2023-04-27T23:21:07.680Z,42.95
2023-04-27T23:23:35.966Z,38.58
2023-04-27T23:26:04.125Z,34.75
2023-04-27T23:28:31.809Z,35.83
2023-04-27T23:30:59.737Z,44.90
2023-04-27T23:33:27.417Z,45.65
2023-04-27T23:35:56.268Z,51.47
2023-04-27T23:38:23.993Z,45.75
2023-04-27T23:40:52.116Z,42.58
2023-04-27T23:43:19.756Z,35.22
2023-04-27T23:45:52.708Z,35.28
2023-04-27T23:48:20.704Z,35.85
2023-04-27T23:50:48.785Z,41.05
2023-04-27T23:53:16.759Z,40.75
2023-04-27T23:55:44.784Z,33.85
2023-04-27T23:58:12.476Z,34.95
